Time;durP1;ratioP1;P1;durP2;ratioP2;P2;SDS_P1;SDS_P2;PMS_P1;PMS_P2;Temp;Humidity;BMP_temperature;BMP_pressure;BME280_temperature;BME280_humidity;BME280_pressure;Samples;Min_cycle;Max_cycle;Signal;HPM_P1;HPM_P2
2022/02/23 00:00:02;;;;;;;0.10;0.10;;;;;;;;;;5062950;28;20410;-69
2022/02/23 00:02:28;;;;;;;0.20;0.20;;;;;;;;;;5063326;28;20422;-71
2022/02/23 00:04:56;;;;;;;0.20;0.20;;;;;;;;;;5063123;28;20510;-70
2022/02/23 00:07:23;;;;;;;0.10;0.10;;;;;;;;;;5063019;28;20282;-69
2022/02/23 00:09:52;;;;;;;0.10;0.10;;;;;;;;;;5063182;28;20411;-68
2022/02/23 00:12:18;;;;;;;0.13;0.13;;;;;;;;;;5062854;28;20274;-69
2022/02/23 00:14:44;;;;;;;0.20;0.20;;;;;;;;;;5062929;28;20283;-70
2022/02/23 00:17:12;;;;;;;0.10;0.10;;;;;;;;;;5063401;28;20211;-72
2022/02/23 00:19:38;;;;;;;0.10;0.10;;;;;;;;;;5062701;28;20569;-71
2022/02/23 00:22:05;;;;;;;0.10;0.10;;;;;;;;;;5062137;28;20437;-71
2022/02/23 00:24:31;;;;;;;0.10;0.10;;;;;;;;;;5063053;28;20204;-71
2022/02/23 00:26:57;;;;;;;0.20;0.20;;;;;;;;;;5063295;28;20218;-70
2022/02/23 00:29:23;;;;;;;0.10;0.10;;;;;;;;;;5063110;28;20207;-70
2022/02/23 00:31:49;;;;;;;2.73;2.53;;;;;;;;;;5063085;28;20204;-68
2022/02/23 00:34:17;;;;;;;0.10;0.10;;;;;;;;;;5062622;28;20250;-70
2022/02/23 00:36:44;;;;;;;0.10;0.10;;;;;;;;;;5063047;28;20250;-69
2022/02/23 00:39:11;;;;;;;0.10;0.10;;;;;;;;;;5062546;28;20403;-71
2022/02/23 00:41:37;;;;;;;0.10;0.10;;;;;;;;;;5063013;28;20234;-69
2022/02/23 00:44:03;;;;;;;0.10;0.10;;;;;;;;;;5062702;28;20201;-71
2022/02/23 00:46:30;;;;;;;0.10;0.10;;;;;;;;;;5062241;28;20241;-69
2022/02/23 00:48:58;;;;;;;0.10;0.10;;;;;;;;;;5062480;28;20507;-70
2022/02/23 00:51:26;;;;;;;0.20;0.20;;;;;;;;;;5062936;28;20494;-72
2022/02/23 00:53:52;;;;;;;0.20;0.20;;;;;;;;;;5062142;28;20227;-69
2022/02/23 00:56:18;;;;;;;0.20;0.20;;;;;;;;;;5062227;28;20278;-69
2022/02/23 00:58:45;;;;;;;0.10;0.10;;;;;;;;;;5062138;28;20223;-72
2022/02/23 01:01:11;;;;;;;0.20;0.20;;;;;;;;;;5062639;28;20221;-70
2022/02/23 01:03:38;;;;;;;0.20;0.20;;;;;;;;;;5062361;28;20255;-71
2022/02/23 01:06:04;;;;;;;0.20;0.20;;;;;;;;;;5062495;28;20494;-71
2022/02/23 01:08:32;;;;;;;0.10;0.10;;;;;;;;;;5062505;28;20758;-70
2022/02/23 01:11:00;;;;;;;0.10;0.10;;;;;;;;;;5062253;28;20270;-71
2022/02/23 01:13:30;;;;;;;0.20;0.20;;;;;;;;;;5062409;28;20466;-71
2022/02/23 01:15:56;;;;;;;0.20;0.20;;;;;;;;;;5062282;28;20213;-70
2022/02/23 01:18:22;;;;;;;0.20;0.20;;;;;;;;;;5062410;28;20384;-69
2022/02/23 01:20:48;;;;;;;1.10;1.10;;;;;;;;;;5062515;28;20483;-70
2022/02/23 01:23:15;;;;;;;0.20;0.20;;;;;;;;;;5062196;28;20211;-69
2022/02/23 01:25:43;;;;;;;0.10;0.10;;;;;;;;;;5062514;28;20210;-70
2022/02/23 01:28:10;;;;;;;0.10;0.10;;;;;;;;;;5062371;28;20211;-71
2022/02/23 01:30:36;;;;;;;0.20;0.20;;;;;;;;;;5062429;28;20210;-69
2022/02/23 01:33:03;;;;;;;0.20;0.20;;;;;;;;;;5064322;28;20557;-70
2022/02/23 01:35:29;;;;;;;0.17;0.17;;;;;;;;;;5066097;28;20264;-70
2022/02/23 01:37:56;;;;;;;0.20;0.20;;;;;;;;;;5066240;28;20244;-70
2022/02/23 01:40:24;;;;;;;0.20;0.20;;;;;;;;;;5066307;28;20210;-70
2022/02/23 01:42:51;;;;;;;0.20;0.20;;;;;;;;;;5066001;28;20233;-69
2022/02/23 01:45:18;;;;;;;0.10;0.10;;;;;;;;;;5066179;28;20362;-69
2022/02/23 01:47:44;;;;;;;0.20;0.20;;;;;;;;;;5065707;28;20229;-70
2022/02/23 01:50:11;;;;;;;0.30;0.30;;;;;;;;;;5065931;28;20258;-69
2022/02/23 01:52:37;;;;;;;0.10;0.10;;;;;;;;;;5065615;28;20211;-69
2022/02/23 01:55:05;;;;;;;0.10;0.10;;;;;;;;;;5065476;28;20224;-70
2022/02/23 01:57:40;;;;;;;0.20;0.20;;;;;;;;;;5065510;28;20253;-69
2022/02/23 02:00:10;;;;;;;0.10;0.10;;;;;;;;;;5065450;28;20214;-70
2022/02/23 02:02:36;;;;;;;0.17;0.17;;;;;;;;;;5065857;28;20556;-70
2022/02/23 02:05:03;;;;;;;0.10;0.10;;;;;;;;;;5065665;28;20527;-70
2022/02/23 02:07:30;;;;;;;0.10;0.10;;;;;;;;;;5065364;28;20207;-70
2022/02/23 02:09:56;;;;;;;0.10;0.10;;;;;;;;;;5065268;28;20265;-69
2022/02/23 02:12:22;;;;;;;0.10;0.10;;;;;;;;;;5065665;28;20207;-70
2022/02/23 02:14:48;;;;;;;0.27;0.27;;;;;;;;;;5065563;28;20451;-69
2022/02/23 02:17:16;;;;;;;0.20;0.20;;;;;;;;;;5065761;28;20262;-69
2022/02/23 02:19:42;;;;;;;0.10;0.10;;;;;;;;;;5065211;28;20257;-70
2022/02/23 02:22:10;;;;;;;0.63;0.63;;;;;;;;;;5065706;28;20253;-69
2022/02/23 02:24:38;;;;;;;0.20;0.20;;;;;;;;;;5065479;28;20274;-71
2022/02/23 02:27:06;;;;;;;0.10;0.10;;;;;;;;;;5064737;28;20210;-70
2022/02/23 02:29:33;;;;;;;0.17;0.17;;;;;;;;;;5065144;28;20249;-70
2022/02/23 02:32:00;;;;;;;0.20;0.20;;;;;;;;;;5065361;28;20249;-71
2022/02/23 02:34:26;;;;;;;0.10;0.10;;;;;;;;;;5065098;28;20268;-71
2022/02/23 02:36:52;;;;;;;0.20;0.20;;;;;;;;;;5065390;28;20528;-71
2022/02/23 02:39:21;;;;;;;0.10;0.10;;;;;;;;;;5064750;28;20234;-68
2022/02/23 02:41:47;;;;;;;0.10;0.10;;;;;;;;;;5065121;28;20227;-70
2022/02/23 02:44:14;;;;;;;0.20;0.20;;;;;;;;;;5064536;28;20257;-69
2022/02/23 02:46:40;;;;;;;0.10;0.10;;;;;;;;;;5065296;28;20249;-70
2022/02/23 02:49:07;;;;;;;0.10;0.10;;;;;;;;;;5064817;28;20262;-70
2022/02/23 02:51:33;;;;;;;0.10;0.10;;;;;;;;;;5064477;28;20206;-70
2022/02/23 02:53:59;;;;;;;0.17;0.17;;;;;;;;;;5064430;28;20223;-70
2022/02/23 02:56:27;;;;;;;0.10;0.10;;;;;;;;;;5064935;28;20371;-70
2022/02/23 02:58:53;;;;;;;0.10;0.10;;;;;;;;;;5064566;28;20214;-69
2022/02/23 03:01:20;;;;;;;0.20;0.20;;;;;;;;;;5064627;28;20210;-69
2022/02/23 03:03:46;;;;;;;0.20;0.20;;;;;;;;;;5064587;28;20551;-70
2022/02/23 03:06:12;;;;;;;0.20;0.20;;;;;;;;;;5064486;28;20207;-70
2022/02/23 03:08:39;;;;;;;0.10;0.10;;;;;;;;;;5064565;28;20280;-70
2022/02/23 03:11:05;;;;;;;0.10;0.10;;;;;;;;;;5064567;28;20207;-70
2022/02/23 03:13:32;;;;;;;0.20;0.20;;;;;;;;;;5064003;28;20220;-69
2022/02/23 03:15:59;;;;;;;0.10;0.10;;;;;;;;;;5064221;28;20265;-69
2022/02/23 03:18:25;;;;;;;0.10;0.10;;;;;;;;;;5064082;28;20268;-70
2022/02/23 03:20:51;;;;;;;0.10;0.10;;;;;;;;;;5064071;28;20207;-70
2022/02/23 03:23:18;;;;;;;0.20;0.20;;;;;;;;;;5064174;28;20401;-70
2022/02/23 03:25:44;;;;;;;0.20;0.20;;;;;;;;;;5064256;28;20249;-69
2022/02/23 03:28:12;;;;;;;0.20;0.20;;;;;;;;;;5064077;28;20503;-70
2022/02/23 03:30:40;;;;;;;0.10;0.10;;;;;;;;;;5063880;28;20216;-69
2022/02/23 03:33:06;;;;;;;0.10;0.10;;;;;;;;;;5063939;28;20560;-70
2022/02/23 03:35:33;;;;;;;0.10;0.10;;;;;;;;;;5064002;28;20474;-70
2022/02/23 03:37:59;;;;;;;0.33;0.33;;;;;;;;;;5063447;28;20225;-69
2022/02/23 03:40:26;;;;;;;0.10;0.10;;;;;;;;;;5063666;28;20214;-70
2022/02/23 03:42:52;;;;;;;0.10;0.10;;;;;;;;;;5063682;28;20233;-69
2022/02/23 03:45:19;;;;;;;0.10;0.10;;;;;;;;;;5063751;28;20487;-71
2022/02/23 03:47:47;;;;;;;0.63;0.63;;;;;;;;;;5063780;28;20260;-71
2022/02/23 03:50:14;;;;;;;3.53;3.10;;;;;;;;;;5063634;28;20223;-70
2022/02/23 03:52:42;;;;;;;0.10;0.10;;;;;;;;;;5063588;28;20423;-69
2022/02/23 03:55:09;;;;;;;0.10;0.10;;;;;;;;;;5062339;28;20277;-70
2022/02/23 03:57:35;;;;;;;0.10;0.10;;;;;;;;;;5063536;28;20503;-70
2022/02/23 04:00:01;;;;;;;0.10;0.10;;;;;;;;;;5063147;28;20215;-70
2022/02/23 04:02:29;;;;;;;0.20;0.20;;;;;;;;;;5063320;28;20221;-70
2022/02/23 04:04:57;;;;;;;0.10;0.10;;;;;;;;;;5063242;28;20206;-70
2022/02/23 04:07:23;;;;;;;0.10;0.10;;;;;;;;;;5063547;28;20562;-71
2022/02/23 04:09:49;;;;;;;0.10;0.10;;;;;;;;;;5063037;28;20210;-68
2022/02/23 04:12:16;;;;;;;0.43;0.43;;;;;;;;;;5063453;28;20392;-69
2022/02/23 04:14:42;;;;;;;0.10;0.10;;;;;;;;;;5063320;28;20417;-70
2022/02/23 04:17:09;;;;;;;0.10;0.10;;;;;;;;;;5063372;28;20274;-70
2022/02/23 04:19:35;;;;;;;0.20;0.20;;;;;;;;;;5063117;28;20391;-69
2022/02/23 04:22:03;;;;;;;0.10;0.10;;;;;;;;;;5063272;28;20281;-69
2022/02/23 04:24:29;;;;;;;0.20;0.20;;;;;;;;;;5062776;28;20203;-70
2022/02/23 04:26:55;;;;;;;0.10;0.10;;;;;;;;;;5063157;28;20246;-70
2022/02/23 04:29:25;;;;;;;0.10;0.10;;;;;;;;;;5062964;28;20252;-70
2022/02/23 04:31:51;;;;;;;0.10;0.10;;;;;;;;;;5062740;28;20211;-70
2022/02/23 04:34:17;;;;;;;0.10;0.10;;;;;;;;;;5062784;28;20245;-70
2022/02/23 04:36:43;;;;;;;0.10;0.10;;;;;;;;;;5063127;28;20206;-70
2022/02/23 04:39:11;;;;;;;0.10;0.10;;;;;;;;;;5062605;28;20241;-69
2022/02/23 04:41:37;;;;;;;0.13;0.13;;;;;;;;;;5062999;28;20231;-70
2022/02/23 04:44:04;;;;;;;0.10;0.10;;;;;;;;;;5062413;28;20232;-70
2022/02/23 04:46:30;;;;;;;0.20;0.20;;;;;;;;;;5062508;28;20241;-70
2022/02/23 04:48:57;;;;;;;0.20;0.20;;;;;;;;;;5062535;28;20402;-70
2022/02/23 04:51:23;;;;;;;0.10;0.10;;;;;;;;;;5062862;28;20265;-68
2022/02/23 04:53:50;;;;;;;0.10;0.10;;;;;;;;;;5062483;28;20215;-69
2022/02/23 04:56:17;;;;;;;0.10;0.10;;;;;;;;;;5062423;28;20221;-70
2022/02/23 04:58:44;;;;;;;0.17;0.17;;;;;;;;;;5062427;28;20270;-69
2022/02/23 05:01:10;;;;;;;0.10;0.10;;;;;;;;;;5062426;28;20225;-69
2022/02/23 05:03:37;;;;;;;0.10;0.10;;;;;;;;;;5062522;28;20212;-70
2022/02/23 05:06:03;;;;;;;0.20;0.20;;;;;;;;;;5063112;28;20224;-69
2022/02/23 05:08:30;;;;;;;0.20;0.20;;;;;;;;;;5068871;28;20252;-69
2022/02/23 05:10:57;;;;;;;0.20;0.20;;;;;;;;;;5068820;28;20206;-69
2022/02/23 05:13:26;;;;;;;0.20;0.20;;;;;;;;;;5069018;28;20506;-69
2022/02/23 05:15:52;;;;;;;0.10;0.10;;;;;;;;;;5068997;28;20620;-70
2022/02/23 05:18:18;;;;;;;0.10;0.10;;;;;;;;;;5069155;28;20328;-71
2022/02/23 05:20:45;;;;;;;0.20;0.20;;;;;;;;;;5069005;28;20506;-70
2022/02/23 05:23:11;;;;;;;0.10;0.10;;;;;;;;;;5069097;28;20560;-72
2022/02/23 05:25:37;;;;;;;0.10;0.10;;;;;;;;;;5068925;28;20248;-71
2022/02/23 05:28:04;;;;;;;0.10;0.10;;;;;;;;;;5069056;28;20206;-72
2022/02/23 05:30:38;;;;;;;0.20;0.20;;;;;;;;;;5068816;28;20210;-71
2022/02/23 05:33:08;;;;;;;0.20;0.20;;;;;;;;;;5068562;28;20233;-71
2022/02/23 05:35:34;;;;;;;0.20;0.20;;;;;;;;;;5068596;28;20237;-70
2022/02/23 05:38:01;;;;;;;0.20;0.20;;;;;;;;;;5069027;28;20215;-71
2022/02/23 05:40:27;;;;;;;0.20;0.20;;;;;;;;;;5069044;28;20207;-70
2022/02/23 05:42:57;;;;;;;0.20;0.20;;;;;;;;;;5068553;28;20227;-70
2022/02/23 05:45:26;;;;;;;0.10;0.10;;;;;;;;;;5068654;28;20431;-69
2022/02/23 05:47:53;;;;;;;0.20;0.20;;;;;;;;;;5068610;28;20206;-69
2022/02/23 05:50:19;;;;;;;0.10;0.10;;;;;;;;;;5068825;28;20504;-70
2022/02/23 05:52:46;;;;;;;0.20;0.20;;;;;;;;;;5068612;28;20262;-70
2022/02/23 05:55:12;;;;;;;0.20;0.20;;;;;;;;;;5068533;28;20280;-69
2022/02/23 05:57:39;;;;;;;0.20;0.20;;;;;;;;;;5068778;28;20213;-70
2022/02/23 06:00:06;;;;;;;0.10;0.10;;;;;;;;;;5068442;28;20259;-69
2022/02/23 06:02:32;;;;;;;0.17;0.17;;;;;;;;;;5068649;28;20205;-70
2022/02/23 06:04:59;;;;;;;0.17;0.17;;;;;;;;;;5068666;28;20215;-69
2022/02/23 06:07:26;;;;;;;0.20;0.20;;;;;;;;;;5068397;28;20205;-70
2022/02/23 06:09:55;;;;;;;0.20;0.20;;;;;;;;;;5068561;28;20207;-69
2022/02/23 06:12:21;;;;;;;0.10;0.10;;;;;;;;;;5068429;28;20203;-70
2022/02/23 06:14:50;;;;;;;0.20;0.20;;;;;;;;;;5068166;28;20545;-69
2022/02/23 06:17:16;;;;;;;0.20;0.20;;;;;;;;;;5068879;28;20448;-70
2022/02/23 06:19:42;;;;;;;0.73;0.73;;;;;;;;;;5064505;28;20203;-72
2022/02/23 06:22:10;;;;;;;0.20;0.20;;;;;;;;;;5065531;28;20336;-70
2022/02/23 06:24:36;;;;;;;0.20;0.20;;;;;;;;;;5064731;28;20229;-64
2022/02/23 06:27:03;;;;;;;0.17;0.17;;;;;;;;;;5064670;28;20218;-64
2022/02/23 06:29:29;;;;;;;0.10;0.10;;;;;;;;;;5064775;28;20211;-63
2022/02/23 06:32:01;;;;;;;0.13;0.13;;;;;;;;;;5065074;28;20206;-63
2022/02/23 06:34:28;;;;;;;0.20;0.20;;;;;;;;;;5064683;28;20365;-62
2022/02/23 06:36:54;;;;;;;0.20;0.20;;;;;;;;;;5065165;28;20243;-63
2022/02/23 06:39:22;;;;;;;0.20;0.20;;;;;;;;;;5064953;28;20261;-64
2022/02/23 06:41:48;;;;;;;0.10;0.10;;;;;;;;;;5064987;28;20230;-63
2022/02/23 06:44:14;;;;;;;0.10;0.10;;;;;;;;;;5064654;28;20253;-64
2022/02/23 06:46:40;;;;;;;0.17;0.17;;;;;;;;;;5065334;28;20491;-62
2022/02/23 06:49:09;;;;;;;0.10;0.10;;;;;;;;;;5064612;28;20260;-64
2022/02/23 06:51:37;;;;;;;0.10;0.10;;;;;;;;;;5065004;28;20207;-63
2022/02/23 06:54:03;;;;;;;2.43;2.33;;;;;;;;;;5064409;28;20242;-63
2022/02/23 06:56:31;;;;;;;1.70;1.63;;;;;;;;;;5064716;28;20234;-63
2022/02/23 06:58:57;;;;;;;0.10;0.10;;;;;;;;;;5064474;28;20215;-63
2022/02/23 07:01:24;;;;;;;0.10;0.10;;;;;;;;;;5064286;28;20428;-64
2022/02/23 07:03:50;;;;;;;0.10;0.10;;;;;;;;;;5064214;28;20497;-65
2022/02/23 07:06:16;;;;;;;0.20;0.20;;;;;;;;;;5064608;28;20249;-63
2022/02/23 07:08:44;;;;;;;0.10;0.10;;;;;;;;;;5064490;28;20270;-64
2022/02/23 07:11:10;;;;;;;0.20;0.20;;;;;;;;;;5064455;28;20257;-65
2022/02/23 07:13:41;;;;;;;0.20;0.20;;;;;;;;;;5064502;28;20207;-64
2022/02/23 07:16:07;;;;;;;0.27;0.27;;;;;;;;;;5064094;28;20237;-63
2022/02/23 07:18:33;;;;;;;0.10;0.10;;;;;;;;;;5064368;28;20207;-64
2022/02/23 07:21:00;;;;;;;0.20;0.20;;;;;;;;;;5064211;28;20204;-65
2022/02/23 07:23:27;;;;;;;0.10;0.10;;;;;;;;;;5063802;28;20250;-64
2022/02/23 07:25:53;;;;;;;0.10;0.10;;;;;;;;;;5064017;28;20203;-63
2022/02/23 07:28:20;;;;;;;0.20;0.20;;;;;;;;;;5064153;28;20365;-66
2022/02/23 07:30:48;;;;;;;0.10;0.10;;;;;;;;;;5062811;28;20422;-64
2022/02/23 07:33:15;;;;;;;0.13;0.13;;;;;;;;;;5063877;28;20208;-63
2022/02/23 07:35:41;;;;;;;0.10;0.10;;;;;;;;;;5063635;28;20232;-63
2022/02/23 07:38:11;;;;;;;0.20;0.20;;;;;;;;;;5063850;28;20574;-64
2022/02/23 07:40:37;;;;;;;0.20;0.20;;;;;;;;;;5063348;28;20242;-64
2022/02/23 07:43:06;;;;;;;0.13;0.13;;;;;;;;;;5063541;28;20210;-64
2022/02/23 07:45:36;;;;;;;0.20;0.20;;;;;;;;;;5063927;28;20447;-65
2022/02/23 07:48:04;;;;;;;0.10;0.10;;;;;;;;;;5063474;28;20206;-63
2022/02/23 07:50:31;;;;;;;0.10;0.10;;;;;;;;;;5063680;28;20293;-64
2022/02/23 07:53:00;;;;;;;0.10;0.10;;;;;;;;;;5063483;28;20258;-63
2022/02/23 07:55:28;;;;;;;0.10;0.10;;;;;;;;;;5063456;28;20227;-65
2022/02/23 07:57:54;;;;;;;0.10;0.10;;;;;;;;;;5063602;28;20307;-65
2022/02/23 08:00:22;;;;;;;0.10;0.10;;;;;;;;;;5063115;28;20498;-64
2022/02/23 08:02:50;;;;;;;0.17;0.17;;;;;;;;;;5063218;28;20205;-64
2022/02/23 08:05:18;;;;;;;0.10;0.10;;;;;;;;;;5063393;28;20201;-63
2022/02/23 08:07:44;;;;;;;0.10;0.10;;;;;;;;;;5063261;28;20206;-64
2022/02/23 08:10:10;;;;;;;0.10;0.10;;;;;;;;;;5063221;28;20493;-64
2022/02/23 08:12:37;;;;;;;0.10;0.10;;;;;;;;;;5062969;28;20224;-63
2022/02/23 08:20:39;;;;;;;0.10;0.10;;;;;;;;;;5050198;28;20528;-64
2022/02/23 08:23:05;;;;;;;0.10;0.10;;;;;;;;;;5062999;28;20213;-63
2022/02/23 08:25:31;;;;;;;0.10;0.10;;;;;;;;;;5062718;28;20236;-64
2022/02/23 08:27:58;;;;;;;0.10;0.10;;;;;;;;;;5062489;28;20217;-63
2022/02/23 08:30:24;;;;;;;0.10;0.10;;;;;;;;;;5062901;28;20255;-64
2022/02/23 08:32:51;;;;;;;0.10;0.10;;;;;;;;;;5062689;28;20208;-64
2022/02/23 08:35:17;;;;;;;0.10;0.10;;;;;;;;;;5062788;28;20535;-63
2022/02/23 08:37:44;;;;;;;0.10;0.10;;;;;;;;;;5062634;28;20204;-64
2022/02/23 08:40:11;;;;;;;0.10;0.10;;;;;;;;;;5062737;28;20238;-64
2022/02/23 08:42:37;;;;;;;0.10;0.10;;;;;;;;;;5062266;28;20232;-64
2022/02/23 08:45:04;;;;;;;0.10;0.10;;;;;;;;;;5062706;28;20379;-64
2022/02/23 08:47:30;;;;;;;0.10;0.10;;;;;;;;;;5062293;28;20217;-65
2022/02/23 08:49:56;;;;;;;0.10;0.10;;;;;;;;;;5062332;28;20242;-63
2022/02/23 08:52:23;;;;;;;0.10;0.10;;;;;;;;;;5062336;28;20211;-63
2022/02/23 08:54:50;;;;;;;0.10;0.10;;;;;;;;;;5062424;28;20211;-63
2022/02/23 08:57:17;;;;;;;0.10;0.10;;;;;;;;;;5062724;28;20238;-63
2022/02/23 08:59:43;;;;;;;0.10;0.10;;;;;;;;;;5062212;28;20239;-63
2022/02/23 09:02:09;;;;;;;0.10;0.10;;;;;;;;;;5062744;28;20205;-64
2022/02/23 09:04:35;;;;;;;0.03;0.03;;;;;;;;;;5062420;28;20207;-64
2022/02/23 09:07:01;;;;;;;0.10;0.10;;;;;;;;;;5062627;28;20498;-64
2022/02/23 09:09:28;;;;;;;0.03;0.03;;;;;;;;;;5062630;28;20243;-64
2022/02/23 09:14:30;;;;;;;0.00;0.00;;;;;;;;;;5062444;28;20187;-64
2022/02/23 09:16:56;;;;;;;0.00;0.00;;;;;;;;;;5062508;28;20231;-63
2022/02/23 09:19:22;;;;;;;0.10;0.10;;;;;;;;;;5062300;28;20205;-63
2022/02/23 09:21:49;;;;;;;0.00;0.00;;;;;;;;;;5061922;28;20213;-64
2022/02/23 09:24:15;;;;;;;0.10;0.10;;;;;;;;;;5062396;28;20495;-63
2022/02/23 09:26:41;;;;;;;0.10;0.10;;;;;;;;;;5062429;28;20202;-63
2022/02/23 09:29:08;;;;;;;0.10;0.10;;;;;;;;;;5062310;28;20264;-64
2022/02/23 09:31:36;;;;;;;0.00;0.00;;;;;;;;;;5062306;28;20201;-65
2022/02/23 09:34:03;;;;;;;0.10;0.10;;;;;;;;;;5062099;28;20205;-64
2022/02/23 09:36:31;;;;;;;0.10;0.10;;;;;;;;;;5062275;28;20239;-63
2022/02/23 09:38:57;;;;;;;0.10;0.10;;;;;;;;;;5062104;28;20216;-63
2022/02/23 09:41:24;;;;;;;0.10;0.10;;;;;;;;;;5062273;28;20255;-63
2022/02/23 09:43:54;;;;;;;0.10;0.10;;;;;;;;;;5062029;28;20274;-64
2022/02/23 09:46:21;;;;;;;0.10;0.10;;;;;;;;;;5062199;28;20430;-64
2022/02/23 09:48:49;;;;;;;0.10;0.10;;;;;;;;;;5061829;28;20216;-63
2022/02/23 09:51:15;;;;;;;0.10;0.10;;;;;;;;;;5062085;28;20215;-64
2022/02/23 09:53:45;;;;;;;0.10;0.10;;;;;;;;;;5063359;28;20505;-65
2022/02/23 09:56:12;;;;;;;0.10;0.10;;;;;;;;;;5065758;28;20252;-65
2022/02/23 09:58:39;;;;;;;0.10;0.10;;;;;;;;;;5065429;28;20212;-65
2022/02/23 10:01:07;;;;;;;0.10;0.10;;;;;;;;;;5065879;28;20204;-65
2022/02/23 10:03:34;;;;;;;0.10;0.10;;;;;;;;;;5065534;28;20204;-65
2022/02/23 10:06:02;;;;;;;0.10;0.10;;;;;;;;;;5065861;28;20207;-66
2022/02/23 10:08:33;;;;;;;0.10;0.10;;;;;;;;;;5065695;28;20243;-63
2022/02/23 10:11:00;;;;;;;0.10;0.10;;;;;;;;;;5065538;28;20213;-65
2022/02/23 10:13:27;;;;;;;3.03;0.50;;;;;;;;;;5065313;28;20213;-63
2022/02/23 10:15:53;;;;;;;0.10;0.10;;;;;;;;;;5065416;28;20230;-63
2022/02/23 10:18:20;;;;;;;0.03;0.03;;;;;;;;;;5065520;28;20214;-64
2022/02/23 10:20:47;;;;;;;0.10;0.10;;;;;;;;;;5065324;28;20204;-64
2022/02/23 10:23:18;;;;;;;0.10;0.10;;;;;;;;;;5065094;28;20275;-64
2022/02/23 10:25:45;;;;;;;0.10;0.10;;;;;;;;;;5065403;28;20212;-64
2022/02/23 10:28:12;;;;;;;0.10;0.10;;;;;;;;;;5064991;28;20205;-64
2022/02/23 10:30:45;;;;;;;0.10;0.10;;;;;;;;;;5065301;28;20206;-64
2022/02/23 10:33:15;;;;;;;0.10;0.10;;;;;;;;;;5064866;28;20212;-64
2022/02/23 10:35:51;;;;;;;0.10;0.10;;;;;;;;;;5064910;28;20438;-64
2022/02/23 10:38:27;;;;;;;0.00;0.00;;;;;;;;;;5065129;28;20263;-64
2022/02/23 10:40:54;;;;;;;0.10;0.10;;;;;;;;;;5065138;28;20502;-64
2022/02/23 10:43:21;;;;;;;0.10;0.10;;;;;;;;;;5065028;28;20206;-64
2022/02/23 10:45:50;;;;;;;0.10;0.10;;;;;;;;;;5064971;28;20209;-64
2022/02/23 10:48:28;;;;;;;0.10;0.10;;;;;;;;;;5064640;28;20247;-64
2022/02/23 10:50:55;;;;;;;0.10;0.10;;;;;;;;;;5064546;28;20251;-63
2022/02/23 10:53:26;;;;;;;0.10;0.10;;;;;;;;;;5064825;28;20239;-63
2022/02/23 10:55:53;;;;;;;0.10;0.10;;;;;;;;;;5064816;28;20469;-63
2022/02/23 10:58:19;;;;;;;0.10;0.10;;;;;;;;;;5064653;28;21312;-64
2022/02/23 11:00:50;;;;;;;1.27;1.27;;;;;;;;;;5064600;28;20214;-64
2022/02/23 11:03:18;;;;;;;0.10;0.10;;;;;;;;;;5064741;28;20286;-64
2022/02/23 11:05:45;;;;;;;0.10;0.10;;;;;;;;;;5064377;28;20209;-64
2022/02/23 11:08:14;;;;;;;0.10;0.10;;;;;;;;;;5064156;28;20317;-64
2022/02/23 11:10:44;;;;;;;0.10;0.10;;;;;;;;;;5064523;28;20204;-63
2022/02/23 11:13:12;;;;;;;0.10;0.10;;;;;;;;;;5064577;28;20212;-65
2022/02/23 11:15:42;;;;;;;0.10;0.10;;;;;;;;;;5064022;28;20209;-63
2022/02/23 11:18:09;;;;;;;0.17;0.17;;;;;;;;;;5064301;28;20497;-64
2022/02/23 11:20:36;;;;;;;0.10;0.10;;;;;;;;;;5064021;28;20204;-64
2022/02/23 11:23:03;;;;;;;0.10;0.10;;;;;;;;;;5064224;28;20497;-63
2022/02/23 11:25:30;;;;;;;0.40;0.40;;;;;;;;;;5064105;28;20248;-63
2022/02/23 11:28:01;;;;;;;0.10;0.10;;;;;;;;;;5064164;28;20236;-64
2022/02/23 11:30:29;;;;;;;0.10;0.10;;;;;;;;;;5063966;28;20215;-64
2022/02/23 11:32:55;;;;;;;0.10;0.10;;;;;;;;;;5063792;28;20216;-63
2022/02/23 11:35:36;;;;;;;0.10;0.10;;;;;;;;;;5063895;28;20210;-64
2022/02/23 11:38:03;;;;;;;0.10;0.10;;;;;;;;;;5064103;28;20576;-64
2022/02/23 11:40:29;;;;;;;0.20;0.20;;;;;;;;;;5064081;28;20215;-64
2022/02/23 11:42:55;;;;;;;0.10;0.10;;;;;;;;;;5063587;28;20226;-64
2022/02/23 11:45:26;;;;;;;0.10;0.10;;;;;;;;;;5063948;28;20275;-63
2022/02/23 11:47:52;;;;;;;0.10;0.10;;;;;;;;;;5063883;28;20192;-63
2022/02/23 11:53:21;;;;;;;0.10;0.10;;;;;;;;;;5063453;28;20168;-64
2022/02/23 11:58:47;;;;;;;0.10;0.10;;;;;;;;;;5063322;28;20377;-63
2022/02/23 12:01:16;;;;;;;0.10;0.10;;;;;;;;;;5063573;28;20217;-63
2022/02/23 12:03:44;;;;;;;7.57;2.40;;;;;;;;;;5063218;28;20246;-65
2022/02/23 12:06:11;;;;;;;0.10;0.10;;;;;;;;;;5063068;28;20214;-62
2022/02/23 12:08:43;;;;;;;0.10;0.10;;;;;;;;;;5063609;28;20272;-63
2022/02/23 12:14:19;;;;;;;0.10;0.10;;;;;;;;;;5063180;28;20226;-63
2022/02/23 12:16:51;;;;;;;0.10;0.10;;;;;;;;;;5062815;28;20236;-64
2022/02/23 12:19:17;;;;;;;0.10;0.10;;;;;;;;;;5063290;28;20215;-62
2022/02/23 12:21:45;;;;;;;0.10;0.10;;;;;;;;;;5063068;28;20395;-65
2022/02/23 12:24:13;;;;;;;0.10;0.10;;;;;;;;;;5063005;28;20215;-65
2022/02/23 12:26:39;;;;;;;0.00;0.00;;;;;;;;;;5063333;28;20247;-63
2022/02/23 12:29:07;;;;;;;0.10;0.10;;;;;;;;;;5063124;28;20212;-64
2022/02/23 12:31:35;;;;;;;0.10;0.10;;;;;;;;;;5062914;28;20317;-63
2022/02/23 12:34:04;;;;;;;0.10;0.10;;;;;;;;;;5063085;28;20521;-66
2022/02/23 12:36:36;;;;;;;0.10;0.10;;;;;;;;;;5063128;28;20255;-63
2022/02/23 12:39:04;;;;;;;0.10;0.10;;;;;;;;;;5062972;28;20204;-65
2022/02/23 12:41:32;;;;;;;0.10;0.10;;;;;;;;;;5062900;28;20247;-64
2022/02/23 12:43:59;;;;;;;2.73;2.63;;;;;;;;;;5062709;28;20231;-64
2022/02/23 12:46:25;;;;;;;0.10;0.10;;;;;;;;;;5062399;28;20206;-64
2022/02/23 12:48:54;;;;;;;0.10;0.10;;;;;;;;;;5062617;28;20274;-64
2022/02/23 12:51:22;;;;;;;0.10;0.10;;;;;;;;;;5062732;28;20239;-63
2022/02/23 12:53:51;;;;;;;0.10;0.10;;;;;;;;;;5062897;28;20204;-62
2022/02/23 12:56:18;;;;;;;0.10;0.10;;;;;;;;;;5062734;28;20208;-64
2022/02/23 12:58:48;;;;;;;0.10;0.10;;;;;;;;;;5062115;28;20217;-64
2022/02/23 13:01:18;;;;;;;0.10;0.10;;;;;;;;;;5062606;28;20209;-64
2022/02/23 13:03:47;;;;;;;0.10;0.10;;;;;;;;;;5062471;28;20214;-64
2022/02/23 13:06:19;;;;;;;0.10;0.10;;;;;;;;;;5062746;28;20383;-63
2022/02/23 13:08:49;;;;;;;0.10;0.10;;;;;;;;;;5062465;28;20199;-64
2022/02/23 13:11:16;;;;;;;0.10;0.10;;;;;;;;;;5062542;28;20282;-65
2022/02/23 13:13:43;;;;;;;0.10;0.10;;;;;;;;;;5062724;28;20269;-64
2022/02/23 13:16:10;;;;;;;0.10;0.10;;;;;;;;;;5062463;28;20213;-65
2022/02/23 13:18:38;;;;;;;0.10;0.10;;;;;;;;;;5062544;28;20527;-63
2022/02/23 13:21:08;;;;;;;0.13;0.13;;;;;;;;;;5062454;28;20213;-63
2022/02/23 13:26:31;;;;;;;23.67;13.70;;;;;;;;;;5100309;28;20545;-64
2022/02/23 13:29:09;;;;;;;0.10;0.10;;;;;;;;;;5100051;28;20205;-64
2022/02/23 13:31:37;;;;;;;0.20;0.20;;;;;;;;;;5100409;28;20195;-63
2022/02/23 13:34:16;;;;;;;0.10;0.10;;;;;;;;;;5100176;28;20322;-64
2022/02/23 13:36:43;;;;;;;0.10;0.10;;;;;;;;;;5100030;28;20217;-63
2022/02/23 13:39:19;;;;;;;0.10;0.10;;;;;;;;;;5100168;28;20203;-63
2022/02/23 13:41:58;;;;;;;0.10;0.10;;;;;;;;;;5099829;28;20229;-63
2022/02/23 13:44:26;;;;;;;0.10;0.10;;;;;;;;;;5100080;28;20297;-64
2022/02/23 13:46:53;;;;;;;0.10;0.10;;;;;;;;;;5100015;28;20204;-63
2022/02/23 13:49:19;;;;;;;0.10;0.10;;;;;;;;;;5100022;28;20557;-63
2022/02/23 13:51:46;;;;;;;0.10;0.10;;;;;;;;;;5099954;28;20253;-63
2022/02/23 13:54:12;;;;;;;0.10;0.10;;;;;;;;;;5099757;28;20263;-63
2022/02/23 13:56:42;;;;;;;0.10;0.10;;;;;;;;;;5099427;28;20203;-63
2022/02/23 13:59:11;;;;;;;0.10;0.10;;;;;;;;;;5099673;28;20203;-64
2022/02/23 14:01:53;;;;;;;0.10;0.10;;;;;;;;;;5099367;28;20393;-64
2022/02/23 14:04:21;;;;;;;0.10;0.10;;;;;;;;;;5099022;28;20213;-65
2022/02/23 14:06:47;;;;;;;0.10;0.10;;;;;;;;;;5099530;28;20432;-64
2022/02/23 14:09:14;;;;;;;0.10;0.10;;;;;;;;;;5099344;28;20233;-64
2022/02/23 14:11:43;;;;;;;0.10;0.10;;;;;;;;;;5099654;28;20203;-64
2022/02/23 14:14:15;;;;;;;0.10;0.10;;;;;;;;;;5099290;28;20202;-64
2022/02/23 14:16:42;;;;;;;0.10;0.10;;;;;;;;;;5099552;28;20387;-64
2022/02/23 14:19:12;;;;;;;0.10;0.10;;;;;;;;;;5099236;28;20269;-64
2022/02/23 14:21:38;;;;;;;0.10;0.10;;;;;;;;;;5098920;28;20759;-64
2022/02/23 14:24:06;;;;;;;0.23;0.23;;;;;;;;;;5099009;28;20212;-64
2022/02/23 14:26:33;;;;;;;0.10;0.10;;;;;;;;;;5098996;28;20219;-64
2022/02/23 14:29:03;;;;;;;0.10;0.10;;;;;;;;;;5099087;28;20203;-64
2022/02/23 14:31:32;;;;;;;0.10;0.10;;;;;;;;;;5099255;28;20262;-63
2022/02/23 14:34:14;;;;;;;0.10;0.10;;;;;;;;;;5098694;28;20272;-63
2022/02/23 14:36:40;;;;;;;0.10;0.10;;;;;;;;;;5091607;28;20190;-64
2022/02/23 14:39:07;;;;;;;0.10;0.10;;;;;;;;;;5085362;28;20206;-63
2022/02/23 14:41:33;;;;;;;0.10;0.10;;;;;;;;;;5085131;28;20392;-63
2022/02/23 14:44:00;;;;;;;0.10;0.10;;;;;;;;;;5085376;28;20282;-63
2022/02/23 14:46:26;;;;;;;0.10;0.10;;;;;;;;;;5085266;28;20294;-64
2022/02/23 14:48:54;;;;;;;0.10;0.10;;;;;;;;;;5085368;28;20517;-64
2022/02/23 14:51:21;;;;;;;0.10;0.10;;;;;;;;;;5084931;28;20218;-63
2022/02/23 14:53:47;;;;;;;0.10;0.10;;;;;;;;;;5085258;28;20503;-63
2022/02/23 14:56:13;;;;;;;0.10;0.10;;;;;;;;;;5085207;28;20231;-63
2022/02/23 14:58:40;;;;;;;0.10;0.10;;;;;;;;;;5085136;28;20210;-64
2022/02/23 15:01:06;;;;;;;0.10;0.10;;;;;;;;;;5085381;28;20487;-64
2022/02/23 15:03:32;;;;;;;0.10;0.10;;;;;;;;;;5085068;28;20277;-64